Startpagina
METAR-TAF:

METAR-TAF

Vliegvelden :

Yellowstone Airport

West Yellowstone, Montana, Verenigde Staten

breedte: 44-39N, lengte: 111-06W, hoogte: 2031 m

Actueel weer

Dit bericht is 9 minuten geleden gemaakt, om 20:55 UTC
Wind 10 kt uit het zuidwesten met uitschieters tot 18 kt
Temperatuur 7°C
Vochtigheid 76%
Druk 1013 hPa
Zicht: 16.1 km
Weinig wolken op 1800 ft
Verspreide wolken op 4100 ft
Gebroken wolken op 7000 ft

METAR: KWYS 242055Z AUTO 22010G18KT 10SM FEW018 SCT041 BKN070 07/03 A2990 RMK AO2

Tijdstip: 15:04 (21:04 UTC)


TAF: ontbreekt

Waarnemingen en weersverwachtingen van meer dan 4000 vliegvelden (METAR en TAF).

De beschikbare stations zijn de gele en rode punten op de kaart.

Ga met uw muis naar het station om de naam te zien.

Klik dan om waarnemingen en weersverwachtingen te zien.

kaart wijzigen: klik op de groene knoppen met een zwart kruis om in te zoomen, op de groene knop met een streepje om uit te zoomen of op de groene pijlen voor aangrenzende kaarten.


METAR-TAF: